sensor_id;sensor_type;location;lat;lon;timestamp;pressure;altitude;pressure_sealevel;temperature;humidity
41800;BME280;27468;47.460;19.034;2023-05-10T00:01:45;100633.16;;;13.01;62.11
41800;BME280;27468;47.460;19.034;2023-05-10T00:04:11;100661.97;;;13.13;62.53
41800;BME280;27468;47.460;19.034;2023-05-10T00:06:36;100597.72;;;12.72;63.06
41800;BME280;27468;47.460;19.034;2023-05-10T00:09:02;100651.72;;;12.99;63.79
41800;BME280;27468;47.460;19.034;2023-05-10T00:11:28;100656.88;;;13.05;62.88
41800;BME280;27468;47.460;19.034;2023-05-10T00:13:53;100615.94;;;12.84;62.76
41800;BME280;27468;47.460;19.034;2023-05-10T00:16:19;100620.34;;;12.84;63.33
41800;BME280;27468;47.460;19.034;2023-05-10T00:18:44;100649.03;;;13.01;63.03
41800;BME280;27468;47.460;19.034;2023-05-10T00:21:10;100638.84;;;12.85;64.20
41800;BME280;27468;47.460;19.034;2023-05-10T00:23:35;100580.63;;;12.51;63.08
41800;BME280;27468;47.460;19.034;2023-05-10T00:26:01;100636.25;;;12.82;63.18
41800;BME280;27468;47.460;19.034;2023-05-10T00:28:27;100629.59;;;12.68;64.64
41800;BME280;27468;47.460;19.034;2023-05-10T00:30:53;100604.47;;;12.50;65.29
41800;BME280;27468;47.460;19.034;2023-05-10T00:33:19;100617.56;;;12.54;64.92
41800;BME280;27468;47.460;19.034;2023-05-10T00:35:44;100609.94;;;12.42;65.70
41800;BME280;27468;47.460;19.034;2023-05-10T00:38:10;100635.94;;;12.61;64.78
41800;BME280;27468;47.460;19.034;2023-05-10T00:40:36;100563.84;;;12.15;64.83
41800;BME280;27468;47.460;19.034;2023-05-10T00:43:02;100582.25;;;12.20;65.99
41800;BME280;27468;47.460;19.034;2023-05-10T00:45:30;100621.44;;;12.40;66.04
41800;BME280;27468;47.460;19.034;2023-05-10T00:47:56;100629.69;;;12.26;66.99
41800;BME280;27468;47.460;19.034;2023-05-10T00:50:22;100620.94;;;12.24;66.69
41800;BME280;27468;47.460;19.034;2023-05-10T00:52:48;100645.25;;;12.40;66.34
41800;BME280;27468;47.460;19.034;2023-05-10T00:55:14;100581.81;;;12.01;66.43
41800;BME280;27468;47.460;19.034;2023-05-10T00:57:40;100613.13;;;12.18;66.51
41800;BME280;27468;47.460;19.034;2023-05-10T01:00:06;100639.41;;;12.26;66.58
41800;BME280;27468;47.460;19.034;2023-05-10T01:02:34;100619.59;;;12.06;67.10
41800;BME280;27468;47.460;19.034;2023-05-10T01:05:00;100616.91;;;12.08;67.16
41800;BME280;27468;47.460;19.034;2023-05-10T01:07:26;100625.00;;;12.00;68.41
41800;BME280;27468;47.460;19.034;2023-05-10T01:09:52;100594.53;;;11.84;68.01
41800;BME280;27468;47.460;19.034;2023-05-10T01:12:17;100634.50;;;12.09;67.42
41800;BME280;27468;47.460;19.034;2023-05-10T01:14:43;100635.47;;;12.05;68.50
41800;BME280;27468;47.460;19.034;2023-05-10T01:17:09;100584.09;;;11.76;67.89
41800;BME280;27468;47.460;19.034;2023-05-10T01:19:36;100599.88;;;11.81;69.03
41800;BME280;27468;47.460;19.034;2023-05-10T01:22:37;100615.50;;;11.92;69.15
41800;BME280;27468;47.460;19.034;2023-05-10T01:25:11;100639.94;;;12.03;69.59
41800;BME280;27468;47.460;19.034;2023-05-10T01:35:40;100634.13;;;12.24;68.40
41800;BME280;27468;47.460;19.034;2023-05-10T01:43:30;100582.66;;;12.03;68.84
41800;BME280;27468;47.460;19.034;2023-05-10T01:48:23;100606.25;;;12.12;68.00
41800;BME280;27468;47.460;19.034;2023-05-10T01:50:52;100581.00;;;11.99;67.85
41800;BME280;27468;47.460;19.034;2023-05-10T01:53:19;100624.56;;;12.18;69.01
41800;BME280;27468;47.460;19.034;2023-05-10T01:55:51;100597.69;;;12.01;69.44
41800;BME280;27468;47.460;19.034;2023-05-10T01:58:31;100599.25;;;12.10;69.40
41800;BME280;27468;47.460;19.034;2023-05-10T02:01:00;100592.25;;;12.07;68.99
41800;BME280;27468;47.460;19.034;2023-05-10T02:03:27;100605.16;;;12.19;69.13
41800;BME280;27468;47.460;19.034;2023-05-10T02:05:54;100613.88;;;12.24;69.39
41800;BME280;27468;47.460;19.034;2023-05-10T02:08:21;100606.72;;;12.28;68.79
41800;BME280;27468;47.460;19.034;2023-05-10T02:10:49;100519.72;;;11.82;69.22
41800;BME280;27468;47.460;19.034;2023-05-10T02:13:16;100544.06;;;11.96;68.98
41800;BME280;27468;47.460;19.034;2023-05-10T02:15:42;100613.78;;;12.28;68.96
41800;BME280;27468;47.460;19.034;2023-05-10T02:18:09;100580.88;;;12.04;69.13
41800;BME280;27468;47.460;19.034;2023-05-10T02:20:36;100550.31;;;11.92;68.53
41800;BME280;27468;47.460;19.034;2023-05-10T02:23:03;100599.81;;;12.22;68.66
41800;BME280;27468;47.460;19.034;2023-05-10T02:25:29;100571.13;;;12.07;68.51
41800;BME280;27468;47.460;19.034;2023-05-10T02:27:57;100604.13;;;12.27;68.48
41800;BME280;27468;47.460;19.034;2023-05-10T02:30:25;100583.19;;;12.17;68.23
41800;BME280;27468;47.460;19.034;2023-05-10T02:32:51;100546.59;;;12.01;67.67
41800;BME280;27468;47.460;19.034;2023-05-10T02:35:17;100553.38;;;12.12;67.38
41800;BME280;27468;47.460;19.034;2023-05-10T02:37:45;100596.72;;;12.42;67.33
41800;BME280;27468;47.460;19.034;2023-05-10T02:40:12;100561.00;;;12.24;67.07
41800;BME280;27468;47.460;19.034;2023-05-10T02:42:42;100595.72;;;12.46;66.79
41800;BME280;27468;47.460;19.034;2023-05-10T02:45:12;100558.34;;;12.24;66.90
41800;BME280;27468;47.460;19.034;2023-05-10T02:47:38;100601.09;;;12.43;67.17
41800;BME280;27468;47.460;19.034;2023-05-10T02:50:04;100539.31;;;12.12;66.74
41800;BME280;27468;47.460;19.034;2023-05-10T02:52:46;100585.31;;;12.40;66.84
41800;BME280;27468;47.460;19.034;2023-05-10T02:55:20;100599.06;;;12.54;66.59
41800;BME280;27468;47.460;19.034;2023-05-10T02:57:51;100592.09;;;12.50;66.38
41800;BME280;27468;47.460;19.034;2023-05-10T03:00:19;100599.06;;;12.54;66.30
41800;BME280;27468;47.460;19.034;2023-05-10T03:02:44;100598.41;;;12.45;66.13
41800;BME280;27468;47.460;19.034;2023-05-10T03:05:10;100549.56;;;12.24;65.89
41800;BME280;27468;47.460;19.034;2023-05-10T03:07:35;100604.63;;;12.42;66.32
41800;BME280;27468;47.460;19.034;2023-05-10T03:10:02;100553.56;;;12.05;66.29
41800;BME280;27468;47.460;19.034;2023-05-10T03:12:56;100561.59;;;12.00;66.69
41800;BME280;27468;47.460;19.034;2023-05-10T03:15:51;100599.78;;;12.24;66.46
41800;BME280;27468;47.460;19.034;2023-05-10T03:18:22;100598.34;;;12.11;66.87
41800;BME280;27468;47.460;19.034;2023-05-10T03:20:50;100590.41;;;12.11;66.86
41800;BME280;27468;47.460;19.034;2023-05-10T03:23:27;100586.22;;;12.02;66.73
41800;BME280;27468;47.460;19.034;2023-05-10T03:25:55;100513.00;;;11.66;66.66
41800;BME280;27468;47.460;19.034;2023-05-10T03:28:21;100603.72;;;12.06;66.77
41800;BME280;27468;47.460;19.034;2023-05-10T03:30:47;100572.72;;;11.73;67.23
41800;BME280;27468;47.460;19.034;2023-05-10T03:33:14;100604.84;;;11.96;66.91
41800;BME280;27468;47.460;19.034;2023-05-10T03:35:39;100552.59;;;11.67;66.82
41800;BME280;27468;47.460;19.034;2023-05-10T03:38:05;100546.47;;;11.65;66.42
41800;BME280;27468;47.460;19.034;2023-05-10T03:40:30;100554.16;;;11.76;66.14
41800;BME280;27468;47.460;19.034;2023-05-10T03:42:58;100601.03;;;12.09;66.47
41800;BME280;27468;47.460;19.034;2023-05-10T03:45:23;100565.41;;;11.87;66.24
41800;BME280;27468;47.460;19.034;2023-05-10T03:47:50;100608.78;;;12.15;66.23
41800;BME280;27468;47.460;19.034;2023-05-10T03:50:16;100581.03;;;11.98;66.49
41800;BME280;27468;47.460;19.034;2023-05-10T03:52:41;100601.75;;;12.14;66.23
41800;BME280;27468;47.460;19.034;2023-05-10T03:55:07;100594.94;;;12.06;66.47
41800;BME280;27468;47.460;19.034;2023-05-10T03:57:33;100548.63;;;11.89;66.39
41800;BME280;27468;47.460;19.034;2023-05-10T03:59:58;100584.25;;;12.10;65.96
41800;BME280;27468;47.460;19.034;2023-05-10T04:02:23;100547.72;;;11.90;66.12
41800;BME280;27468;47.460;19.034;2023-05-10T04:04:49;100565.84;;;12.07;65.19
41800;BME280;27468;47.460;19.034;2023-05-10T04:07:14;100543.94;;;12.02;65.13
41800;BME280;27468;47.460;19.034;2023-05-10T04:09:40;100597.75;;;12.35;65.12
41800;BME280;27468;47.460;19.034;2023-05-10T04:12:06;100548.31;;;12.03;64.95
41800;BME280;27468;47.460;19.034;2023-05-10T04:14:31;100601.22;;;12.37;64.89
41800;BME280;27468;47.460;19.034;2023-05-10T04:16:57;100562.81;;;12.22;64.53
41800;BME280;27468;47.460;19.034;2023-05-10T04:19:22;100571.22;;;12.40;64.64
41800;BME280;27468;47.460;19.034;2023-05-10T04:21:48;100582.28;;;12.89;63.83
41800;BME280;27468;47.460;19.034;2023-05-10T04:24:13;100534.00;;;13.14;62.28
41800;BME280;27468;47.460;19.034;2023-05-10T04:26:39;100565.22;;;13.65;60.97
41800;BME280;27468;47.460;19.034;2023-05-10T04:29:04;100582.03;;;13.92;59.57
41800;BME280;27468;47.460;19.034;2023-05-10T04:31:30;100569.00;;;14.13;59.17
41800;BME280;27468;47.460;19.034;2023-05-10T04:33:55;100602.66;;;14.94;57.77
41800;BME280;27468;47.460;19.034;2023-05-10T04:36:20;100585.25;;;15.35;55.53
41800;BME280;27468;47.460;19.034;2023-05-10T04:38:46;100531.44;;;15.53;53.59
41800;BME280;27468;47.460;19.034;2023-05-10T04:41:11;100521.31;;;15.86;52.52
41800;BME280;27468;47.460;19.034;2023-05-10T04:43:37;100592.06;;;16.77;51.59
41800;BME280;27468;47.460;19.034;2023-05-10T04:46:04;100529.44;;;16.89;50.35
41800;BME280;27468;47.460;19.034;2023-05-10T04:48:30;100590.84;;;17.86;49.50
41800;BME280;27468;47.460;19.034;2023-05-10T04:50:55;100570.91;;;18.12;47.27
41800;BME280;27468;47.460;19.034;2023-05-10T04:53:21;100536.47;;;17.70;46.89
41800;BME280;27468;47.460;19.034;2023-05-10T04:55:47;100526.75;;;17.48;46.57
41800;BME280;27468;47.460;19.034;2023-05-10T04:58:13;100573.81;;;17.70;46.98
41800;BME280;27468;47.460;19.034;2023-05-10T05:00:38;100563.50;;;17.81;46.38
41800;BME280;27468;47.460;19.034;2023-05-10T05:03:04;100550.97;;;17.83;46.48
41800;BME280;27468;47.460;19.034;2023-05-10T05:05:30;100590.97;;;17.83;46.14
41800;BME280;27468;47.460;19.034;2023-05-10T05:07:55;100580.13;;;17.28;46.87
41800;BME280;27468;47.460;19.034;2023-05-10T05:10:21;100545.38;;;16.70;47.82
41800;BME280;27468;47.460;19.034;2023-05-10T05:12:46;100572.91;;;16.47;48.20
41800;BME280;27468;47.460;19.034;2023-05-10T05:15:12;100589.91;;;16.43;49.12
41800;BME280;27468;47.460;19.034;2023-05-10T05:17:37;100552.31;;;16.09;49.68
41800;BME280;27468;47.460;19.034;2023-05-10T05:20:03;100595.75;;;16.09;50.05
41800;BME280;27468;47.460;19.034;2023-05-10T05:22:29;100543.78;;;15.54;51.36
41800;BME280;27468;47.460;19.034;2023-05-10T05:24:55;100564.53;;;15.44;51.71
41800;BME280;27468;47.460;19.034;2023-05-10T05:27:20;100585.69;;;15.71;51.29
41800;BME280;27468;47.460;19.034;2023-05-10T05:29:50;100603.84;;;15.83;51.46
41800;BME280;27468;47.460;19.034;2023-05-10T05:32:16;100606.19;;;15.67;51.20
41800;BME280;27468;47.460;19.034;2023-05-10T05:34:41;100578.47;;;15.26;51.77
41800;BME280;27468;47.460;19.034;2023-05-10T05:37:07;100612.78;;;15.32;52.63
41800;BME280;27468;47.460;19.034;2023-05-10T05:39:32;100576.28;;;15.12;52.71
41800;BME280;27468;47.460;19.034;2023-05-10T05:41:58;100625.78;;;15.40;52.51
41800;BME280;27468;47.460;19.034;2023-05-10T05:44:26;100623.47;;;15.31;52.96
41800;BME280;27468;47.460;19.034;2023-05-10T05:46:53;100625.78;;;15.15;53.29
41800;BME280;27468;47.460;19.034;2023-05-10T05:49:19;100630.28;;;15.13;53.56
41800;BME280;27468;47.460;19.034;2023-05-10T05:51:44;100610.97;;;14.83;54.07
41800;BME280;27468;47.460;19.034;2023-05-10T05:54:10;100612.56;;;14.89;53.81
41800;BME280;27468;47.460;19.034;2023-05-10T05:56:35;100614.38;;;14.86;53.89
41800;BME280;27468;47.460;19.034;2023-05-10T05:59:00;100603.94;;;14.82;54.29
41800;BME280;27468;47.460;19.034;2023-05-10T06:01:26;100627.88;;;14.80;55.13
41800;BME280;27468;47.460;19.034;2023-05-10T06:03:51;100583.56;;;14.56;55.02
41800;BME280;27468;47.460;19.034;2023-05-10T06:06:17;100631.13;;;14.89;54.59
41800;BME280;27468;47.460;19.034;2023-05-10T06:08:42;100628.59;;;14.85;54.68
41800;BME280;27468;47.460;19.034;2023-05-10T06:11:07;100589.94;;;14.50;55.01
41800;BME280;27468;47.460;19.034;2023-05-10T06:13:33;100606.41;;;14.60;55.12
41800;BME280;27468;47.460;19.034;2023-05-10T06:16:00;100630.81;;;14.71;55.09
41800;BME280;27468;47.460;19.034;2023-05-10T06:18:26;100598.75;;;14.51;55.40
41800;BME280;27468;47.460;19.034;2023-05-10T06:20:52;100624.59;;;14.72;54.98
41800;BME280;27468;47.460;19.034;2023-05-10T06:23:17;100638.44;;;14.82;54.82
41800;BME280;27468;47.460;19.034;2023-05-10T06:25:42;100644.72;;;14.79;54.77
41800;BME280;27468;47.460;19.034;2023-05-10T06:28:08;100632.22;;;14.83;54.46
41800;BME280;27468;47.460;19.034;2023-05-10T06:30:33;100633.22;;;14.79;54.91
41800;BME280;27468;47.460;19.034;2023-05-10T06:33:00;100592.56;;;14.50;54.95
41800;BME280;27468;47.460;19.034;2023-05-10T06:35:26;100633.41;;;14.73;55.09
41800;BME280;27468;47.460;19.034;2023-05-10T06:37:51;100640.69;;;14.94;54.84
41800;BME280;27468;47.460;19.034;2023-05-10T06:40:17;100588.81;;;14.58;54.81
41800;BME280;27468;47.460;19.034;2023-05-10T06:42:42;100654.53;;;15.02;54.75
41800;BME280;27468;47.460;19.034;2023-05-10T06:45:10;100642.06;;;15.04;54.61
41800;BME280;27468;47.460;19.034;2023-05-10T06:47:35;100614.84;;;14.99;53.94
41800;BME280;27468;47.460;19.034;2023-05-10T06:50:01;100623.78;;;14.97;53.34
41800;BME280;27468;47.460;19.034;2023-05-10T06:52:26;100592.13;;;14.91;53.35
41800;BME280;27468;47.460;19.034;2023-05-10T06:54:52;100628.38;;;15.16;53.23
41800;BME280;27468;47.460;19.034;2023-05-10T06:57:17;100594.41;;;15.01;53.43
41800;BME280;27468;47.460;19.034;2023-05-10T06:59:43;100627.84;;;15.32;53.27
41800;BME280;27468;47.460;19.034;2023-05-10T07:02:08;100629.66;;;15.31;52.77
41800;BME280;27468;47.460;19.034;2023-05-10T07:04:34;100624.22;;;15.34;53.02
41800;BME280;27468;47.460;19.034;2023-05-10T07:06:59;100584.31;;;15.11;53.65
41800;BME280;27468;47.460;19.034;2023-05-10T07:09:24;100633.50;;;15.47;53.37
41800;BME280;27468;47.460;19.034;2023-05-10T07:11:50;100627.88;;;15.57;53.50
41800;BME280;27468;47.460;19.034;2023-05-10T07:14:15;100622.38;;;15.61;53.86
41800;BME280;27468;47.460;19.034;2023-05-10T07:16:41;100630.66;;;15.77;53.68
41800;BME280;27468;47.460;19.034;2023-05-10T07:19:06;100611.47;;;15.69;52.45
41800;BME280;27468;47.460;19.034;2023-05-10T07:21:32;100595.06;;;15.81;53.00
41800;BME280;27468;47.460;19.034;2023-05-10T07:23:57;100618.56;;;16.15;52.83
41800;BME280;27468;47.460;19.034;2023-05-10T07:26:23;100615.47;;;16.26;52.43
41800;BME280;27468;47.460;19.034;2023-05-10T07:28:49;100577.16;;;16.30;51.52
41800;BME280;27468;47.460;19.034;2023-05-10T07:31:14;100611.19;;;16.67;50.09
41800;BME280;27468;47.460;19.034;2023-05-10T07:33:40;100615.69;;;16.65;49.79
41800;BME280;27468;47.460;19.034;2023-05-10T07:36:06;100626.63;;;16.79;49.75
41800;BME280;27468;47.460;19.034;2023-05-10T07:38:31;100612.66;;;16.94;48.72
41800;BME280;27468;47.460;19.034;2023-05-10T07:40:56;100612.34;;;17.02;47.96
41800;BME280;27468;47.460;19.034;2023-05-10T07:43:22;100604.56;;;16.97;48.25
41800;BME280;27468;47.460;19.034;2023-05-10T07:45:47;100594.97;;;16.93;48.11
41800;BME280;27468;47.460;19.034;2023-05-10T07:48:12;100604.97;;;17.08;48.06
41800;BME280;27468;47.460;19.034;2023-05-10T07:50:38;100613.50;;;17.16;48.36
41800;BME280;27468;47.460;19.034;2023-05-10T07:53:03;100564.94;;;16.90;47.83
41800;BME280;27468;47.460;19.034;2023-05-10T07:55:29;100538.44;;;16.66;48.02
41800;BME280;27468;47.460;19.034;2023-05-10T07:57:54;100594.91;;;17.15;48.23
41800;BME280;27468;47.460;19.034;2023-05-10T08:00:20;100562.00;;;16.96;47.71
41800;BME280;27468;47.460;19.034;2023-05-10T08:02:46;100610.66;;;17.40;47.96
41800;BME280;27468;47.460;19.034;2023-05-10T08:05:11;100599.66;;;17.47;47.64
41800;BME280;27468;47.460;19.034;2023-05-10T08:07:37;100604.25;;;17.64;47.34
41800;BME280;27468;47.460;19.034;2023-05-10T08:10:03;100613.59;;;17.74;47.40
41800;BME280;27468;47.460;19.034;2023-05-10T08:12:28;100602.13;;;17.91;47.19
41800;BME280;27468;47.460;19.034;2023-05-10T08:14:54;100600.75;;;18.20;47.00
41800;BME280;27468;47.460;19.034;2023-05-10T08:17:19;100593.19;;;18.11;45.26
41800;BME280;27468;47.460;19.034;2023-05-10T08:19:45;100570.03;;;17.93;45.78
41800;BME280;27468;47.460;19.034;2023-05-10T08:22:10;100606.09;;;18.01;46.73
41800;BME280;27468;47.460;19.034;2023-05-10T08:24:35;100606.53;;;18.11;46.45
41800;BME280;27468;47.460;19.034;2023-05-10T08:27:04;100585.84;;;17.97;46.09
41800;BME280;27468;47.460;19.034;2023-05-10T08:29:30;100611.44;;;18.20;45.47
41800;BME280;27468;47.460;19.034;2023-05-10T08:31:55;100587.50;;;18.00;45.70
41800;BME280;27468;47.460;19.034;2023-05-10T08:34:21;100588.72;;;18.11;46.10
41800;BME280;27468;47.460;19.034;2023-05-10T08:36:46;100562.13;;;17.91;45.65
41800;BME280;27468;47.460;19.034;2023-05-10T08:39:12;100602.38;;;17.87;44.97
41800;BME280;27468;47.460;19.034;2023-05-10T08:41:39;100606.25;;;17.98;45.22
41800;BME280;27468;47.460;19.034;2023-05-10T08:44:07;100591.91;;;18.01;45.67
41800;BME280;27468;47.460;19.034;2023-05-10T08:46:34;100597.66;;;17.92;45.48
41800;BME280;27468;47.460;19.034;2023-05-10T08:49:03;100600.69;;;18.03;45.97
41800;BME280;27468;47.460;19.034;2023-05-10T08:51:32;100577.41;;;18.06;45.72
41800;BME280;27468;47.460;19.034;2023-05-10T08:54:00;100548.59;;;17.77;45.11
41800;BME280;27468;47.460;19.034;2023-05-10T08:56:26;100569.19;;;17.92;45.46
41800;BME280;27468;47.460;19.034;2023-05-10T08:58:51;100559.00;;;18.00;44.65
41800;BME280;27468;47.460;19.034;2023-05-10T09:01:18;100553.97;;;18.13;44.26
41800;BME280;27468;47.460;19.034;2023-05-10T09:03:43;100579.31;;;18.40;44.46
41800;BME280;27468;47.460;19.034;2023-05-10T09:06:12;100596.22;;;18.58;44.43
41800;BME280;27468;47.460;19.034;2023-05-10T09:08:38;100593.69;;;18.74;43.82
41800;BME280;27468;47.460;19.034;2023-05-10T09:11:05;100593.31;;;18.82;44.19
41800;BME280;27468;47.460;19.034;2023-05-10T09:13:31;100595.00;;;18.65;43.70
41800;BME280;27468;47.460;19.034;2023-05-10T09:15:57;100611.81;;;18.48;43.68
41800;BME280;27468;47.460;19.034;2023-05-10T09:18:23;100546.94;;;18.29;44.16
41800;BME280;27468;47.460;19.034;2023-05-10T09:20:49;100587.25;;;18.59;43.68
41800;BME280;27468;47.460;19.034;2023-05-10T09:23:14;100587.06;;;18.64;43.01
41800;BME280;27468;47.460;19.034;2023-05-10T09:25:41;100598.94;;;18.75;43.40
41800;BME280;27468;47.460;19.034;2023-05-10T09:28:08;100592.44;;;18.81;42.91
41800;BME280;27468;47.460;19.034;2023-05-10T09:30:34;100585.38;;;18.97;43.23
41800;BME280;27468;47.460;19.034;2023-05-10T09:33:00;100584.59;;;18.95;43.24
41800;BME280;27468;47.460;19.034;2023-05-10T09:35:28;100585.22;;;19.00;42.61
41800;BME280;27468;47.460;19.034;2023-05-10T09:37:56;100532.34;;;18.72;42.61
41800;BME280;27468;47.460;19.034;2023-05-10T09:40:26;100583.00;;;19.08;42.46
41800;BME280;27468;47.460;19.034;2023-05-10T09:45:21;100531.50;;;19.22;41.73
41800;BME280;27468;47.460;19.034;2023-05-10T09:47:46;100581.31;;;19.40;42.12
41800;BME280;27468;47.460;19.034;2023-05-10T09:50:12;100563.88;;;19.33;41.29
41800;BME280;27468;47.460;19.034;2023-05-10T09:55:12;100562.75;;;19.55;39.50
41800;BME280;27468;47.460;19.034;2023-05-10T09:57:38;100576.91;;;19.39;40.51
41800;BME280;27468;47.460;19.034;2023-05-10T10:00:05;100581.16;;;19.43;41.01
41800;BME280;27468;47.460;19.034;2023-05-10T10:02:31;100520.56;;;19.27;40.67
41800;BME280;27468;47.460;19.034;2023-05-10T10:04:56;100562.69;;;19.39;41.02
41800;BME280;27468;47.460;19.034;2023-05-10T10:07:23;100547.09;;;19.47;41.12
41800;BME280;27468;47.460;19.034;2023-05-10T10:09:52;100562.84;;;19.69;40.53
41800;BME280;27468;47.460;19.034;2023-05-10T10:12:18;100560.66;;;19.93;39.77
41800;BME280;27468;47.460;19.034;2023-05-10T10:14:48;100559.72;;;20.09;39.56
41800;BME280;27468;47.460;19.034;2023-05-10T10:17:16;100551.81;;;20.22;39.57
41800;BME280;27468;47.460;19.034;2023-05-10T10:19:41;100551.03;;;20.36;39.81
41800;BME280;27468;47.460;19.034;2023-05-10T10:22:07;100550.47;;;20.47;39.79
41800;BME280;27468;47.460;19.034;2023-05-10T10:24:33;100540.16;;;20.55;39.08
41800;BME280;27468;47.460;19.034;2023-05-10T10:29:52;100507.28;;;19.74;38.77
41800;BME280;27468;47.460;19.034;2023-05-10T10:35:17;100525.00;;;19.61;39.18
41800;BME280;27468;47.460;19.034;2023-05-10T10:37:44;100529.91;;;19.68;39.50
41800;BME280;27468;47.460;19.034;2023-05-10T10:40:29;100539.66;;;19.54;39.28
41800;BME280;27468;47.460;19.034;2023-05-10T10:42:56;100525.31;;;19.55;39.17
41800;BME280;27468;47.460;19.034;2023-05-10T10:45:23;100488.75;;;19.55;38.95
41800;BME280;27468;47.460;19.034;2023-05-10T10:47:54;100521.22;;;19.96;38.73
41800;BME280;27468;47.460;19.034;2023-05-10T10:50:45;100520.44;;;20.10;38.32
41800;BME280;27468;47.460;19.034;2023-05-10T10:53:13;100466.47;;;19.86;38.13
41800;BME280;27468;47.460;19.034;2023-05-10T10:55:46;100468.13;;;19.89;37.82
41800;BME280;27468;47.460;19.034;2023-05-10T10:58:29;100484.16;;;20.04;38.01
41800;BME280;27468;47.460;19.034;2023-05-10T11:03:39;100507.56;;;20.62;37.62
41800;BME280;27468;47.460;19.034;2023-05-10T11:06:05;100500.13;;;20.82;37.16
41800;BME280;27468;47.460;19.034;2023-05-10T11:08:31;100505.34;;;20.99;36.78
41800;BME280;27468;47.460;19.034;2023-05-10T11:13:33;100507.06;;;20.56;35.41
41800;BME280;27468;47.460;19.034;2023-05-10T11:16:10;100503.84;;;20.65;35.93
41800;BME280;27468;47.460;19.034;2023-05-10T11:18:36;100458.03;;;20.24;36.39
41800;BME280;27468;47.460;19.034;2023-05-10T11:21:02;100495.06;;;20.47;36.33
41800;BME280;27468;47.460;19.034;2023-05-10T11:23:48;100485.50;;;20.73;36.41
41800;BME280;27468;47.460;19.034;2023-05-10T11:26:14;100471.44;;;20.84;36.02
41800;BME280;27468;47.460;19.034;2023-05-10T11:31:09;100463.47;;;21.26;34.78
41800;BME280;27468;47.460;19.034;2023-05-10T11:33:51;100459.13;;;21.09;34.43
41800;BME280;27468;47.460;19.034;2023-05-10T11:36:23;100483.47;;;21.35;34.26
41800;BME280;27468;47.460;19.034;2023-05-10T11:38:49;100427.81;;;21.10;33.67
41800;BME280;27468;47.460;19.034;2023-05-10T11:41:17;100471.66;;;21.52;33.91
41800;BME280;27468;47.460;19.034;2023-05-10T11:43:42;100464.84;;;21.46;33.62
41800;BME280;27468;47.460;19.034;2023-05-10T11:46:10;100473.09;;;21.43;33.34
41800;BME280;27468;47.460;19.034;2023-05-10T11:48:38;100461.16;;;21.34;33.65
41800;BME280;27468;47.460;19.034;2023-05-10T11:51:04;100470.88;;;21.07;33.32
41800;BME280;27468;47.460;19.034;2023-05-10T11:53:31;100470.84;;;21.23;33.27
41800;BME280;27468;47.460;19.034;2023-05-10T11:56:07;100472.22;;;21.00;33.41
41800;BME280;27468;47.460;19.034;2023-05-10T11:58:33;100462.88;;;21.21;33.45
41800;BME280;27468;47.460;19.034;2023-05-10T12:01:00;100427.75;;;21.26;32.72
41800;BME280;27468;47.460;19.034;2023-05-10T12:03:26;100460.91;;;21.66;32.95
41800;BME280;27468;47.460;19.034;2023-05-10T12:05:53;100452.72;;;21.82;33.35
41800;BME280;27468;47.460;19.034;2023-05-10T12:08:23;100469.06;;;22.05;32.46
41800;BME280;27468;47.460;19.034;2023-05-10T12:10:49;100461.25;;;21.88;32.44
41800;BME280;27468;47.460;19.034;2023-05-10T12:13:15;100383.22;;;21.50;32.83
41800;BME280;27468;47.460;19.034;2023-05-10T12:15:42;100425.59;;;21.86;32.53
41800;BME280;27468;47.460;19.034;2023-05-10T12:18:09;100437.31;;;21.98;31.69
41800;BME280;27468;47.460;19.034;2023-05-10T12:20:35;100475.44;;;22.17;32.02
41800;BME280;27468;47.460;19.034;2023-05-10T12:23:01;100426.03;;;21.66;32.89
41800;BME280;27468;47.460;19.034;2023-05-10T12:25:36;100465.50;;;21.78;33.01
41800;BME280;27468;47.460;19.034;2023-05-10T12:28:07;100455.16;;;21.72;33.15
41800;BME280;27468;47.460;19.034;2023-05-10T12:30:34;100453.59;;;21.82;32.65
41800;BME280;27468;47.460;19.034;2023-05-10T12:33:10;100456.97;;;21.98;32.39
41800;BME280;27468;47.460;19.034;2023-05-10T12:35:53;100449.13;;;21.95;32.31
41800;BME280;27468;47.460;19.034;2023-05-10T12:38:32;100447.19;;;21.97;32.71
41800;BME280;27468;47.460;19.034;2023-05-10T12:41:00;100456.69;;;22.03;32.18
41800;BME280;27468;47.460;19.034;2023-05-10T12:43:25;100391.22;;;21.79;32.40
41800;BME280;27468;47.460;19.034;2023-05-10T12:45:51;100450.63;;;22.14;32.92
41800;BME280;27468;47.460;19.034;2023-05-10T12:48:16;100441.91;;;22.10;32.79
41800;BME280;27468;47.460;19.034;2023-05-10T12:50:42;100419.13;;;22.03;32.62
41800;BME280;27468;47.460;19.034;2023-05-10T12:53:07;100370.50;;;21.81;32.06
41800;BME280;27468;47.460;19.034;2023-05-10T12:55:33;100424.44;;;22.17;32.26
41800;BME280;27468;47.460;19.034;2023-05-10T12:57:59;100432.94;;;22.24;32.70
41800;BME280;27468;47.460;19.034;2023-05-10T13:00:24;100385.84;;;22.05;32.83
41800;BME280;27468;47.460;19.034;2023-05-10T13:02:50;100415.06;;;22.10;32.57
41800;BME280;27468;47.460;19.034;2023-05-10T13:05:15;100395.13;;;22.00;32.48
41800;BME280;27468;47.460;19.034;2023-05-10T13:07:40;100354.91;;;21.73;32.25
41800;BME280;27468;47.460;19.034;2023-05-10T13:10:10;100368.59;;;21.41;32.10
41800;BME280;27468;47.460;19.034;2023-05-10T13:12:36;100389.44;;;21.65;32.72
41800;BME280;27468;47.460;19.034;2023-05-10T13:15:02;100397.53;;;21.78;32.46